Time;durP1;ratioP1;P1;durP2;ratioP2;P2;SDS_P1;SDS_P2;PMS_P1;PMS_P2;Temp;Humidity;BMP_temperature;BMP_pressure;BME280_temperature;BME280_humidity;BME280_pressure;Samples;Min_cycle;Max_cycle;Signal;HPM_P1;HPM_P2
2022/07/14 00:00:35;;;;;;;10.60;2.20;;;;;;;;;;5013647;28;20728;-71
2022/07/14 00:03:03;;;;;;;10.33;2.60;;;;;;;;;;5013199;28;20448;-70
2022/07/14 00:05:31;;;;;;;8.33;2.50;;;;;;;;;;5012584;28;20458;-71
2022/07/14 00:08:00;;;;;;;10.47;2.73;;;;;;;;;;5013093;28;20487;-70
2022/07/14 00:10:28;;;;;;;9.30;2.13;;;;;;;;;;5014022;28;20914;-70
2022/07/14 00:12:56;;;;;;;8.13;2.37;;;;;;;;;;5015189;28;20961;-70
2022/07/14 00:15:23;;;;;;;10.93;2.23;;;;;;;;;;5014064;28;20768;-71
2022/07/14 00:17:52;;;;;;;8.50;2.33;;;;;;;;;;5014172;28;20478;-70
2022/07/14 00:20:19;;;;;;;14.67;2.90;;;;;;;;;;5015122;28;20456;-70
2022/07/14 00:22:47;;;;;;;13.43;2.80;;;;;;;;;;5016705;28;20479;-71
2022/07/14 00:25:16;;;;;;;16.23;3.60;;;;;;;;;;5013669;28;20459;-71
2022/07/14 00:27:45;;;;;;;6.43;2.57;;;;;;;;;;5014256;28;20920;-71
2022/07/14 00:30:13;;;;;;;12.47;2.53;;;;;;;;;;5021596;28;20473;-70
2022/07/14 00:32:43;;;;;;;9.87;3.30;;;;;;;;;;5015380;28;20459;-71
2022/07/14 00:35:11;;;;;;;8.43;2.33;;;;;;;;;;5033761;28;20457;-70
2022/07/14 00:37:39;;;;;;;7.27;3.37;;;;;;;;;;5033076;28;20470;-70
2022/07/14 00:40:08;;;;;;;14.37;2.57;;;;;;;;;;5013735;28;20470;-71
2022/07/14 00:42:38;;;;;;;8.87;2.20;;;;;;;;;;5027534;28;20492;-70
2022/07/14 00:45:07;;;;;;;7.47;3.20;;;;;;;;;;5034161;28;20541;-70
2022/07/14 00:47:36;;;;;;;11.30;2.50;;;;;;;;;;5034672;28;20466;-71
2022/07/14 00:50:07;;;;;;;8.10;2.83;;;;;;;;;;5033840;28;20450;-71
2022/07/14 00:52:34;;;;;;;9.40;2.23;;;;;;;;;;5032235;28;20585;-71
2022/07/14 00:55:03;;;;;;;11.33;2.57;;;;;;;;;;5034980;28;20525;-70
2022/07/14 00:57:30;;;;;;;11.63;2.83;;;;;;;;;;5033589;28;20788;-70
2022/07/14 00:59:59;;;;;;;7.17;2.43;;;;;;;;;;5034738;28;20842;-71
2022/07/14 01:02:28;;;;;;;13.80;2.83;;;;;;;;;;5033174;28;20544;-71
2022/07/14 01:04:55;;;;;;;9.63;2.40;;;;;;;;;;5033966;28;20511;-71
2022/07/14 01:07:26;;;;;;;8.57;2.33;;;;;;;;;;5034297;28;20457;-71
2022/07/14 01:09:54;;;;;;;12.77;2.77;;;;;;;;;;5034281;28;20454;-71
2022/07/14 01:12:21;;;;;;;8.10;2.70;;;;;;;;;;5017251;28;20459;-71
2022/07/14 01:14:49;;;;;;;11.10;3.00;;;;;;;;;;5014493;28;20494;-71
2022/07/14 01:17:21;;;;;;;8.90;2.37;;;;;;;;;;5014769;28;21105;-71
2022/07/14 01:19:49;;;;;;;7.40;2.30;;;;;;;;;;5018411;28;20520;-71
2022/07/14 01:22:18;;;;;;;7.83;1.90;;;;;;;;;;5034382;28;20867;-71
2022/07/14 01:24:46;;;;;;;6.80;2.20;;;;;;;;;;5034038;28;20524;-70
2022/07/14 01:27:14;;;;;;;10.17;2.47;;;;;;;;;;5034122;28;20458;-71
2022/07/14 01:29:41;;;;;;;11.97;2.63;;;;;;;;;;5029586;28;20458;-70
2022/07/14 01:32:09;;;;;;;7.50;2.83;;;;;;;;;;5018492;28;20871;-70
2022/07/14 01:34:37;;;;;;;4.53;2.00;;;;;;;;;;5035231;28;20513;-70
2022/07/14 01:37:05;;;;;;;8.10;3.00;;;;;;;;;;5037975;28;20520;-71
2022/07/14 01:39:34;;;;;;;9.80;2.70;;;;;;;;;;5037784;28;20549;-70
2022/07/14 01:42:05;;;;;;;9.63;3.00;;;;;;;;;;5037214;28;20450;-70
2022/07/14 01:44:33;;;;;;;7.73;2.27;;;;;;;;;;5033563;28;20554;-70
2022/07/14 01:47:01;;;;;;;11.63;2.53;;;;;;;;;;5016902;28;20451;-71
2022/07/14 01:49:29;;;;;;;8.07;2.23;;;;;;;;;;5029508;28;20485;-71
2022/07/14 01:51:57;;;;;;;12.30;2.77;;;;;;;;;;5037180;28;20461;-71
2022/07/14 01:54:25;;;;;;;10.47;2.60;;;;;;;;;;5036889;28;20759;-70
2022/07/14 01:56:54;;;;;;;8.73;2.70;;;;;;;;;;5037942;28;20816;-70
2022/07/14 01:59:21;;;;;;;9.87;2.90;;;;;;;;;;5036472;28;20466;-70
2022/07/14 02:01:49;;;;;;;8.37;3.07;;;;;;;;;;5037947;28;20552;-71
2022/07/14 02:04:18;;;;;;;11.83;2.77;;;;;;;;;;5030050;28;20914;-70
2022/07/14 02:06:47;;;;;;;13.20;3.30;;;;;;;;;;5018014;28;20501;-70
2022/07/14 02:09:15;;;;;;;9.00;2.60;;;;;;;;;;5017116;28;20462;-71
2022/07/14 02:14:29;;;;;;;8.53;2.10;;;;;;;;;;5017078;28;20478;-70
2022/07/14 02:16:57;;;;;;;10.93;2.73;;;;;;;;;;5017259;28;20485;-70
2022/07/14 02:19:26;;;;;;;7.70;2.53;;;;;;;;;;5022452;28;20789;-71
2022/07/14 02:21:54;;;;;;;8.33;2.63;;;;;;;;;;5033361;28;20455;-70
2022/07/14 02:24:22;;;;;;;7.60;2.60;;;;;;;;;;5017535;28;20444;-70
2022/07/14 02:26:51;;;;;;;6.60;2.60;;;;;;;;;;5017282;28;20454;-71
2022/07/14 02:29:19;;;;;;;6.87;2.23;;;;;;;;;;5016691;28;20447;-71
2022/07/14 02:31:48;;;;;;;10.17;2.97;;;;;;;;;;5026802;28;20553;-70
2022/07/14 02:34:17;;;;;;;10.97;2.57;;;;;;;;;;5017105;28;20483;-70
2022/07/14 02:36:45;;;;;;;6.67;2.53;;;;;;;;;;5016070;28;20455;-71
2022/07/14 02:39:16;;;;;;;8.17;2.60;;;;;;;;;;5017660;28;20529;-70
2022/07/14 02:41:44;;;;;;;10.03;2.70;;;;;;;;;;5023407;28;20969;-71
2022/07/14 02:44:12;;;;;;;11.23;2.47;;;;;;;;;;5036401;28;20457;-71
2022/07/14 02:46:39;;;;;;;8.70;2.77;;;;;;;;;;5034362;28;20512;-70
2022/07/14 02:49:08;;;;;;;14.70;2.93;;;;;;;;;;5016771;28;20553;-70
2022/07/14 02:51:36;;;;;;;9.53;2.60;;;;;;;;;;5016958;28;20470;-70
2022/07/14 02:54:04;;;;;;;12.60;4.03;;;;;;;;;;5015891;28;20933;-70
2022/07/14 02:56:32;;;;;;;8.77;2.67;;;;;;;;;;5016143;28;20542;-70
2022/07/14 02:59:00;;;;;;;16.50;3.03;;;;;;;;;;5016336;28;20538;-70
2022/07/14 03:01:27;;;;;;;6.60;2.90;;;;;;;;;;5016485;28;20456;-71
2022/07/14 03:03:55;;;;;;;8.53;2.50;;;;;;;;;;5016782;28;20452;-70
2022/07/14 03:06:24;;;;;;;11.60;3.07;;;;;;;;;;5016691;28;20879;-70
2022/07/14 03:08:53;;;;;;;7.13;2.43;;;;;;;;;;5016195;28;20546;-70
2022/07/14 03:11:21;;;;;;;10.23;2.87;;;;;;;;;;5016061;28;21135;-71
2022/07/14 03:16:30;;;;;;;12.53;3.27;;;;;;;;;;5015953;28;20477;-70
2022/07/14 03:19:01;;;;;;;5.77;2.00;;;;;;;;;;5016021;28;20447;-72
2022/07/14 03:21:30;;;;;;;7.23;2.93;;;;;;;;;;5031334;28;20477;-71
2022/07/14 03:23:58;;;;;;;5.37;2.40;;;;;;;;;;5031544;28;20451;-70
2022/07/14 03:26:28;;;;;;;5.77;2.80;;;;;;;;;;5034284;28;20454;-70
2022/07/14 03:28:56;;;;;;;11.23;2.87;;;;;;;;;;5035863;28;20562;-70
2022/07/14 03:31:24;;;;;;;13.70;2.80;;;;;;;;;;5036980;28;20450;-70
2022/07/14 03:33:52;;;;;;;9.47;2.30;;;;;;;;;;5036271;28;20518;-70
2022/07/14 03:36:22;;;;;;;11.07;3.13;;;;;;;;;;5035110;28;20592;-71
2022/07/14 03:38:51;;;;;;;13.73;3.13;;;;;;;;;;5035911;28;20477;-71
2022/07/14 03:41:18;;;;;;;12.30;3.17;;;;;;;;;;5034978;28;20545;-71
2022/07/14 03:43:47;;;;;;;7.67;2.10;;;;;;;;;;5034713;28;20470;-71
2022/07/14 03:46:15;;;;;;;10.27;3.00;;;;;;;;;;5034526;28;20455;-71
2022/07/14 03:48:46;;;;;;;15.10;2.50;;;;;;;;;;5027339;28;20466;-70
2022/07/14 03:51:16;;;;;;;7.37;2.77;;;;;;;;;;5015464;28;20630;-70
2022/07/14 03:53:47;;;;;;;8.57;4.03;;;;;;;;;;5014727;28;20546;-71
2022/07/14 03:56:16;;;;;;;6.63;2.63;;;;;;;;;;5015023;28;20966;-70
2022/07/14 03:58:44;;;;;;;7.53;3.10;;;;;;;;;;5014649;28;20534;-70
2022/07/14 04:01:13;;;;;;;4.40;2.30;;;;;;;;;;5014816;28;20447;-71
2022/07/14 04:03:41;;;;;;;6.90;3.23;;;;;;;;;;5021484;28;20459;-71
2022/07/14 04:06:09;;;;;;;9.83;3.00;;;;;;;;;;5033020;28;20481;-71
2022/07/14 04:08:36;;;;;;;10.90;3.40;;;;;;;;;;5034503;28;20885;-71
2022/07/14 04:11:04;;;;;;;10.70;3.00;;;;;;;;;;5032233;28;20874;-70
2022/07/14 04:13:33;;;;;;;6.90;2.90;;;;;;;;;;5033681;28;20667;-71
2022/07/14 04:16:01;;;;;;;12.10;2.87;;;;;;;;;;5032749;28;20964;-70
2022/07/14 04:18:29;;;;;;;5.80;2.23;;;;;;;;;;5031048;28;20910;-70
2022/07/14 04:20:57;;;;;;;6.83;2.77;;;;;;;;;;5028351;28;20833;-71
2022/07/14 04:23:30;;;;;;;8.97;3.20;;;;;;;;;;5015585;28;20532;-71
2022/07/14 04:25:58;;;;;;;7.90;2.87;;;;;;;;;;5014111;28;20525;-71
2022/07/14 04:28:25;;;;;;;7.10;2.83;;;;;;;;;;5024618;28;20481;-70
2022/07/14 04:30:55;;;;;;;10.60;3.27;;;;;;;;;;5032166;28;20455;-69
2022/07/14 04:33:22;;;;;;;10.83;4.07;;;;;;;;;;5033248;28;20455;-70
2022/07/14 04:35:50;;;;;;;12.43;4.70;;;;;;;;;;5033363;28;20493;-70
2022/07/14 04:38:18;;;;;;;24.07;6.20;;;;;;;;;;5034325;28;20458;-71
2022/07/14 04:40:48;;;;;;;15.77;4.33;;;;;;;;;;5034160;28;20450;-71
2022/07/14 04:43:16;;;;;;;11.50;3.50;;;;;;;;;;5034127;28;20458;-71
2022/07/14 04:45:44;;;;;;;11.60;3.63;;;;;;;;;;5015699;28;20444;-71
2022/07/14 04:48:13;;;;;;;8.27;2.93;;;;;;;;;;5014528;28;20455;-71
2022/07/14 04:53:29;;;;;;;6.67;2.83;;;;;;;;;;5013116;28;20719;-70
2022/07/14 04:55:57;;;;;;;13.37;3.13;;;;;;;;;;5018890;28;20491;-71
2022/07/14 04:58:25;;;;;;;13.17;3.43;;;;;;;;;;5013746;28;20748;-70
2022/07/14 05:00:58;;;;;;;6.60;2.70;;;;;;;;;;5013514;28;20521;-70
2022/07/14 05:03:28;;;;;;;9.00;3.30;;;;;;;;;;5018791;28;20529;-71
2022/07/14 05:05:56;;;;;;;8.10;2.10;;;;;;;;;;5029583;28;20478;-70
2022/07/14 05:08:31;;;;;;;7.43;2.60;;;;;;;;;;5035029;28;20805;-71
2022/07/14 05:10:59;;;;;;;6.97;2.13;;;;;;;;;;5035830;28;20454;-70
2022/07/14 05:13:27;;;;;;;4.80;1.83;;;;;;;;;;5037285;28;20867;-70
2022/07/14 05:15:54;;;;;;;9.37;2.50;;;;;;;;;;5018978;28;20570;-70
2022/07/14 05:18:22;;;;;;;6.70;2.03;;;;;;;;;;5016993;28;20983;-70
2022/07/14 05:20:51;;;;;;;8.27;2.50;;;;;;;;;;5016011;28;20464;-70
2022/07/14 05:23:19;;;;;;;9.20;2.80;;;;;;;;;;5016820;28;20951;-71
2022/07/14 05:25:48;;;;;;;9.10;2.47;;;;;;;;;;5016484;28;20443;-71
2022/07/14 05:28:16;;;;;;;6.57;2.07;;;;;;;;;;5017100;28;20564;-71
2022/07/14 05:30:44;;;;;;;11.93;2.30;;;;;;;;;;5017084;28;20461;-71
2022/07/14 05:33:11;;;;;;;7.23;1.77;;;;;;;;;;5033564;28;20458;-71
2022/07/14 05:35:39;;;;;;;8.10;2.00;;;;;;;;;;5035789;28;20521;-71
2022/07/14 05:38:09;;;;;;;10.03;2.23;;;;;;;;;;5036532;28;20454;-71
2022/07/14 05:40:36;;;;;;;9.13;2.47;;;;;;;;;;5035618;28;20446;-71
2022/07/14 05:43:07;;;;;;;12.30;3.20;;;;;;;;;;5034003;28;20453;-71
2022/07/14 05:45:35;;;;;;;6.47;1.93;;;;;;;;;;5018050;28;20521;-70
2022/07/14 05:48:03;;;;;;;7.80;1.77;;;;;;;;;;5024481;28;20504;-71
2022/07/14 05:50:31;;;;;;;12.23;2.83;;;;;;;;;;5036149;28;20485;-71
2022/07/14 05:53:01;;;;;;;7.40;2.53;;;;;;;;;;5029753;28;20473;-71
2022/07/14 05:55:32;;;;;;;6.40;2.10;;;;;;;;;;5016906;28;20487;-70
2022/07/14 05:58:00;;;;;;;4.47;2.00;;;;;;;;;;5016135;28;20915;-70
2022/07/14 06:00:28;;;;;;;5.70;2.37;;;;;;;;;;5015281;28;20549;-70
2022/07/14 06:02:57;;;;;;;12.67;2.63;;;;;;;;;;5016125;28;20959;-70
2022/07/14 06:05:24;;;;;;;4.23;1.57;;;;;;;;;;5015630;28;20494;-70
2022/07/14 06:07:52;;;;;;;13.57;3.53;;;;;;;;;;5015770;28;20447;-70
2022/07/14 06:10:20;;;;;;;5.53;2.33;;;;;;;;;;5022016;28;20466;-70
2022/07/14 06:12:49;;;;;;;9.70;1.90;;;;;;;;;;5028640;28;21022;-70
2022/07/14 06:15:17;;;;;;;8.43;2.27;;;;;;;;;;5023438;28;20577;-71
2022/07/14 06:17:48;;;;;;;8.03;1.37;;;;;;;;;;5021778;28;20451;-69
2022/07/14 06:20:17;;;;;;;4.67;1.30;;;;;;;;;;5013333;28;20477;-72
2022/07/14 06:22:45;;;;;;;5.50;1.30;;;;;;;;;;5018003;28;20456;-70
2022/07/14 06:25:16;;;;;;;3.30;1.00;;;;;;;;;;5021090;28;20800;-71
2022/07/14 06:27:44;;;;;;;9.13;1.63;;;;;;;;;;5021631;28;20455;-70
2022/07/14 06:30:13;;;;;;;6.90;1.90;;;;;;;;;;5031354;28;20451;-71
2022/07/14 06:32:42;;;;;;;6.50;1.70;;;;;;;;;;5025691;28;20455;-71
2022/07/14 06:35:10;;;;;;;6.30;1.17;;;;;;;;;;5029196;28;20509;-71
2022/07/14 06:37:38;;;;;;;3.97;1.23;;;;;;;;;;5034576;28;20466;-71
2022/07/14 06:40:09;;;;;;;6.50;1.17;;;;;;;;;;5024050;28;20458;-72
2022/07/14 06:42:37;;;;;;;6.13;1.13;;;;;;;;;;5028987;28;20938;-71
2022/07/14 06:45:05;;;;;;;6.10;1.83;;;;;;;;;;5033840;28;20461;-71
2022/07/14 06:47:35;;;;;;;7.00;2.00;;;;;;;;;;5029362;28;20518;-71
2022/07/14 06:50:02;;;;;;;6.57;1.30;;;;;;;;;;5019334;28;20493;-70
2022/07/14 06:52:33;;;;;;;4.33;1.03;;;;;;;;;;5017015;28;20512;-70
2022/07/14 06:55:01;;;;;;;5.43;2.07;;;;;;;;;;5034309;28;20957;-70
2022/07/14 06:57:29;;;;;;;7.83;2.57;;;;;;;;;;5031928;28;20474;-71
2022/07/14 06:59:57;;;;;;;2.57;1.10;;;;;;;;;;5028958;28;20542;-71
2022/07/14 07:02:26;;;;;;;3.20;1.03;;;;;;;;;;5019307;28;20517;-71
2022/07/14 07:07:40;;;;;;;4.33;1.40;;;;;;;;;;5016999;28;20450;-71
2022/07/14 07:10:14;;;;;;;5.53;1.60;;;;;;;;;;5015730;28;20470;-71
2022/07/14 07:12:41;;;;;;;4.77;2.20;;;;;;;;;;5015431;28;20471;-71
2022/07/14 07:15:10;;;;;;;3.80;1.00;;;;;;;;;;5015229;28;20475;-72
2022/07/14 07:17:38;;;;;;;4.50;1.03;;;;;;;;;;5015725;28;20542;-71
2022/07/14 07:20:10;;;;;;;4.93;1.20;;;;;;;;;;5019285;28;20807;-72
2022/07/14 07:22:38;;;;;;;4.90;1.60;;;;;;;;;;5013892;28;20464;-71
2022/07/14 07:25:07;;;;;;;5.10;1.37;;;;;;;;;;5016833;28;20455;-71
2022/07/14 07:27:45;;;;;;;3.47;1.40;;;;;;;;;;5022818;28;20779;-72
2022/07/14 07:30:13;;;;;;;5.50;1.00;;;;;;;;;;5018115;28;20458;-71
2022/07/14 07:32:42;;;;;;;4.07;1.00;;;;;;;;;;5022180;28;20899;-72
2022/07/14 07:35:12;;;;;;;2.90;1.20;;;;;;;;;;5022018;28;20555;-71
2022/07/14 07:37:40;;;;;;;6.70;1.10;;;;;;;;;;5019927;28;20459;-72
2022/07/14 07:40:08;;;;;;;6.50;1.73;;;;;;;;;;5019705;28;20533;-70
2022/07/14 07:42:36;;;;;;;3.33;1.00;;;;;;;;;;5031897;28;20540;-72
2022/07/14 07:45:08;;;;;;;5.10;0.80;;;;;;;;;;5020850;28;20541;-70
2022/07/14 07:47:38;;;;;;;4.70;1.00;;;;;;;;;;5030691;28;20521;-70
2022/07/14 07:50:12;;;;;;;5.67;1.80;;;;;;;;;;5015383;28;20473;-72
2022/07/14 07:52:46;;;;;;;3.20;0.70;;;;;;;;;;5021801;28;20475;-70
2022/07/14 07:55:14;;;;;;;2.90;0.70;;;;;;;;;;5026738;28;20490;-70
2022/07/14 07:57:43;;;;;;;5.17;1.13;;;;;;;;;;5032306;28;20446;-72
2022/07/14 08:00:13;;;;;;;6.50;1.20;;;;;;;;;;5017952;28;20470;-72
2022/07/14 08:02:48;;;;;;;3.03;0.83;;;;;;;;;;5030340;28;20887;-70
2022/07/14 08:05:17;;;;;;;4.30;1.10;;;;;;;;;;5029182;28;20763;-70
2022/07/14 08:07:47;;;;;;;4.10;1.00;;;;;;;;;;5021420;28;20868;-71
2022/07/14 08:10:15;;;;;;;3.20;0.70;;;;;;;;;;5023372;28;20478;-70
2022/07/14 08:12:44;;;;;;;5.90;1.30;;;;;;;;;;5032046;28;20457;-70
2022/07/14 08:15:12;;;;;;;3.47;0.83;;;;;;;;;;5018606;28;20479;-70
2022/07/14 08:17:40;;;;;;;2.17;0.90;;;;;;;;;;5012121;28;20463;-73
2022/07/14 08:20:24;;;;;;;3.77;0.80;;;;;;;;;;5012759;28;20481;-71
2022/07/14 08:22:54;;;;;;;3.33;0.77;;;;;;;;;;5013952;28;20451;-73
2022/07/14 08:25:22;;;;;;;2.90;0.80;;;;;;;;;;5012200;28;20471;-72
2022/07/14 08:28:00;;;;;;;3.57;0.80;;;;;;;;;;5012856;28;20458;-72
2022/07/14 08:30:28;;;;;;;2.20;0.67;;;;;;;;;;5013826;28;20449;-72
2022/07/14 08:32:57;;;;;;;4.40;1.73;;;;;;;;;;5029602;28;20532;-72
2022/07/14 08:35:25;;;;;;;2.70;0.77;;;;;;;;;;5031910;28;20524;-71
2022/07/14 08:37:58;;;;;;;2.43;0.80;;;;;;;;;;5016251;28;20459;-71
2022/07/14 08:40:30;;;;;;;4.70;1.13;;;;;;;;;;5019953;28;20490;-71
2022/07/14 08:43:03;;;;;;;2.53;0.80;;;;;;;;;;5015110;28;20455;-71
2022/07/14 08:45:35;;;;;;;2.80;0.80;;;;;;;;;;5031081;28;21086;-72
2022/07/14 08:48:07;;;;;;;5.57;1.70;;;;;;;;;;5052229;28;20896;-70
2022/07/14 08:50:39;;;;;;;1.90;0.80;;;;;;;;;;5022807;28;20888;-70
2022/07/14 08:53:14;;;;;;;2.30;0.70;;;;;;;;;;5020472;28;20458;-71
2022/07/14 08:55:46;;;;;;;2.83;0.90;;;;;;;;;;5014743;28;20497;-71
2022/07/14 08:58:16;;;;;;;2.37;1.10;;;;;;;;;;5024726;28;20458;-71
2022/07/14 09:00:49;;;;;;;6.10;1.33;;;;;;;;;;5013207;28;20468;-71
2022/07/14 09:03:19;;;;;;;4.60;1.03;;;;;;;;;;5010580;28;20459;-71
2022/07/14 09:05:48;;;;;;;2.33;0.70;;;;;;;;;;5012943;28;20458;-71
2022/07/14 09:08:20;;;;;;;2.33;0.80;;;;;;;;;;5019787;28;20553;-71
2022/07/14 09:13:51;;;;;;;4.00;1.20;;;;;;;;;;5007008;28;20578;-71
2022/07/14 09:16:23;;;;;;;6.00;0.80;;;;;;;;;;5013939;28;20487;-71
2022/07/14 09:19:19;;;;;;;4.40;1.07;;;;;;;;;;5011677;28;20471;-71
2022/07/14 09:21:50;;;;;;;3.77;1.20;;;;;;;;;;4998656;28;21036;-71
2022/07/14 09:24:22;;;;;;;5.57;1.37;;;;;;;;;;5010347;28;20997;-71
2022/07/14 09:26:50;;;;;;;4.87;1.30;;;;;;;;;;5019416;28;20443;-71
2022/07/14 09:29:35;;;;;;;2.17;0.80;;;;;;;;;;5028065;28;20466;-71
2022/07/14 09:32:06;;;;;;;2.10;0.70;;;;;;;;;;5020791;28;20489;-71
2022/07/14 09:34:39;;;;;;;7.90;1.30;;;;;;;;;;5017631;28;20463;-71
2022/07/14 09:37:13;;;;;;;7.73;1.23;;;;;;;;;;5025629;28;20486;-72
2022/07/14 09:39:55;;;;;;;3.40;1.43;;;;;;;;;;5018495;28;20483;-73
2022/07/14 09:42:45;;;;;;;5.07;0.90;;;;;;;;;;5022759;28;20899;-71
2022/07/14 09:45:19;;;;;;;2.37;0.90;;;;;;;;;;5015179;28;20459;-72
2022/07/14 09:47:53;;;;;;;3.63;0.97;;;;;;;;;;5021497;28;20523;-73
2022/07/14 09:50:36;;;;;;;3.00;0.77;;;;;;;;;;5017210;28;20524;-72
2022/07/14 09:53:24;;;;;;;4.97;0.93;;;;;;;;;;5009614;28;20500;-70
2022/07/14 09:55:57;;;;;;;5.33;0.97;;;;;;;;;;5005792;28;20483;-71
2022/07/14 09:58:28;;;;;;;4.03;0.70;;;;;;;;;;5021986;28;20534;-71
2022/07/14 10:01:00;;;;;;;3.60;0.83;;;;;;;;;;5026825;28;20549;-71
2022/07/14 10:03:44;;;;;;;2.73;0.60;;;;;;;;;;5015102;28;20755;-71
2022/07/14 10:06:27;;;;;;;3.57;1.40;;;;;;;;;;5020827;28;20566;-71
2022/07/14 10:09:12;;;;;;;2.57;1.03;;;;;;;;;;5013930;28;20479;-72
2022/07/14 10:11:42;;;;;;;3.67;0.90;;;;;;;;;;5017609;28;20474;-72
2022/07/14 10:14:15;;;;;;;2.53;1.03;;;;;;;;;;5024916;28;20466;-71
2022/07/14 10:16:46;;;;;;;2.10;0.80;;;;;;;;;;5021173;28;20492;-72
2022/07/14 10:19:19;;;;;;;4.53;0.70;;;;;;;;;;5015119;28;20470;-72
2022/07/14 10:21:54;;;;;;;2.47;0.80;;;;;;;;;;5012424;28;20517;-72
2022/07/14 10:24:39;;;;;;;1.90;0.80;;;;;;;;;;5012329;28;20458;-72
2022/07/14 10:27:11;;;;;;;2.37;0.60;;;;;;;;;;5022334;28;20454;-71
2022/07/14 10:29:40;;;;;;;1.80;0.60;;;;;;;;;;5015826;28;20463;-72
2022/07/14 10:32:18;;;;;;;1.90;0.70;;;;;;;;;;5026256;28;20546;-71
2022/07/14 10:34:48;;;;;;;8.00;2.90;;;;;;;;;;5013740;28;20887;-71
2022/07/14 10:37:19;;;;;;;3.00;1.30;;;;;;;;;;5014128;28;20577;-72
2022/07/14 10:39:51;;;;;;;5.03;1.67;;;;;;;;;;5021751;28;20473;-72
2022/07/14 10:42:38;;;;;;;3.43;0.77;;;;;;;;;;5034091;28;20457;-71
2022/07/14 10:45:17;;;;;;;2.88;1.08;;;;;;;;;;5025470;28;20527;-71
2022/07/14 10:47:56;;;;;;;2.63;0.90;;;;;;;;;;5022487;28;20207;-71
2022/07/14 10:50:26;;;;;;;5.87;1.77;;;;;;;;;;5028145;28;20466;-71
2022/07/14 10:53:06;;;;;;;3.17;0.90;;;;;;;;;;5015249;28;20447;-71
2022/07/14 10:55:40;;;;;;;5.37;1.20;;;;;;;;;;5014632;28;20506;-72
2022/07/14 10:58:33;;;;;;;2.50;0.67;;;;;;;;;;5032380;28;21111;-71
2022/07/14 11:01:05;;;;;;;2.57;0.70;;;;;;;;;;5014698;28;20549;-71
2022/07/14 11:03:49;;;;;;;3.13;0.83;;;;;;;;;;5011943;28;20786;-71
2022/07/14 11:06:23;;;;;;;3.20;0.70;;;;;;;;;;5013197;28;20470;-71
2022/07/14 11:09:12;;;;;;;3.50;0.80;;;;;;;;;;5014757;28;20457;-70
2022/07/14 11:17:54;;;;;;;3.10;0.90;;;;;;;;;;5010957;28;20570;-70
2022/07/14 11:20:42;;;;;;;2.00;0.90;;;;;;;;;;5016329;28;20830;-71
2022/07/14 11:26:04;;;;;;;2.43;1.00;;;;;;;;;;5009398;28;20474;-70
2022/07/14 11:28:41;;;;;;;3.87;1.67;;;;;;;;;;5013079;28;20468;-72
2022/07/14 11:31:16;;;;;;;2.53;0.73;;;;;;;;;;5019447;28;20889;-72
2022/07/14 11:36:34;;;;;;;3.00;0.90;;;;;;;;;;5016033;28;20925;-72
2022/07/14 11:39:31;;;;;;;2.90;0.77;;;;;;;;;;5023968;28;20461;-72
2022/07/14 11:42:11;;;;;;;2.47;0.80;;;;;;;;;;5021986;28;20470;-72
2022/07/14 11:47:54;;;;;;;3.10;0.90;;;;;;;;;;4988765;28;20474;-71
2022/07/14 11:50:37;;;;;;;3.30;0.80;;;;;;;;;;5025962;28;20451;-72
2022/07/14 11:53:12;;;;;;;4.30;1.40;;;;;;;;;;5023184;28;20473;-71
2022/07/14 11:55:51;;;;;;;4.77;0.80;;;;;;;;;;5011444;28;20454;-71
2022/07/14 11:58:23;;;;;;;2.60;0.70;;;;;;;;;;5011992;28;20957;-71
2022/07/14 12:00:57;;;;;;;2.73;0.90;;;;;;;;;;5012481;28;20451;-71
2022/07/14 12:03:28;;;;;;;4.07;1.03;;;;;;;;;;5012989;28;20459;-71
2022/07/14 12:06:00;;;;;;;2.40;0.80;;;;;;;;;;5026034;28;20457;-71
2022/07/14 12:08:36;;;;;;;2.73;0.80;;;;;;;;;;5026677;28;20463;-72
2022/07/14 12:11:08;;;;;;;5.00;0.80;;;;;;;;;;5011422;28;21022;-71
2022/07/14 12:13:48;;;;;;;4.20;0.70;;;;;;;;;;5027373;28;20450;-71
2022/07/14 12:16:16;;;;;;;5.30;1.00;;;;;;;;;;5013638;28;20454;-70
2022/07/14 12:18:47;;;;;;;3.50;0.80;;;;;;;;;;5030860;28;20559;-71
2022/07/14 12:21:33;;;;;;;3.10;0.80;;;;;;;;;;5027396;28;20459;-72
2022/07/14 12:24:05;;;;;;;3.20;0.67;;;;;;;;;;5014396;28;20536;-71
2022/07/14 12:26:38;;;;;;;2.37;0.70;;;;;;;;;;5020369;28;20462;-71
2022/07/14 12:29:07;;;;;;;1.77;0.70;;;;;;;;;;5010962;28;20455;-72
2022/07/14 12:31:44;;;;;;;2.10;0.80;;;;;;;;;;5022547;28;20458;-72
2022/07/14 12:34:12;;;;;;;3.73;0.87;;;;;;;;;;5030771;28;20552;-71
2022/07/14 12:36:47;;;;;;;3.67;0.80;;;;;;;;;;5020128;28;20486;-71
2022/07/14 12:39:18;;;;;;;3.13;0.70;;;;;;;;;;5030835;28;20442;-71
2022/07/14 12:41:49;;;;;;;2.60;0.83;;;;;;;;;;5013580;28;20467;-70
2022/07/14 12:44:37;;;;;;;3.70;0.90;;;;;;;;;;5020249;28;20505;-70
2022/07/14 12:47:28;;;;;;;2.23;1.10;;;;;;;;;;5013651;28;20752;-71
2022/07/14 12:49:56;;;;;;;2.37;0.70;;;;;;;;;;5025360;28;20749;-70
2022/07/14 12:52:52;;;;;;;2.13;0.70;;;;;;;;;;5030347;28;20894;-70
2022/07/14 12:55:37;;;;;;;4.27;1.00;;;;;;;;;;5031341;28;20451;-70
2022/07/14 12:58:14;;;;;;;2.10;0.80;;;;;;;;;;5025632;28;20541;-70
2022/07/14 13:00:45;;;;;;;3.53;1.10;;;;;;;;;;5017916;28;20465;-71
2022/07/14 13:03:27;;;;;;;3.03;0.87;;;;;;;;;;5016628;28;20771;-71
2022/07/14 13:05:58;;;;;;;6.83;0.70;;;;;;;;;;5030674;28;20450;-71
2022/07/14 13:08:52;;;;;;;3.30;1.00;;;;;;;;;;5046252;28;20479;-70
2022/07/14 13:11:41;;;;;;;2.77;0.73;;;;;;;;;;5013713;28;20450;-70
2022/07/14 13:14:12;;;;;;;3.60;0.90;;;;;;;;;;5030313;28;20439;-71
2022/07/14 13:16:54;;;;;;;4.23;1.00;;;;;;;;;;5037481;28;20491;-70
2022/07/14 13:19:25;;;;;;;2.20;0.70;;;;;;;;;;5016002;28;20452;-72
2022/07/14 13:21:57;;;;;;;3.93;0.70;;;;;;;;;;5011754;28;20496;-71
2022/07/14 13:24:26;;;;;;;2.63;0.70;;;;;;;;;;5015246;28;20468;-71
2022/07/14 13:27:11;;;;;;;3.47;1.40;;;;;;;;;;5018454;28;20459;-71
2022/07/14 13:29:42;;;;;;;2.87;0.73;;;;;;;;;;5029970;28;20534;-70
2022/07/14 13:32:11;;;;;;;3.47;0.80;;;;;;;;;;5036114;28;20469;-70
2022/07/14 13:34:40;;;;;;;9.03;1.53;;;;;;;;;;5019401;28;20548;-71
2022/07/14 13:37:12;;;;;;;2.80;0.60;;;;;;;;;;5034270;28;20588;-72
2022/07/14 13:39:42;;;;;;;3.00;0.83;;;;;;;;;;5016826;28;20478;-72
2022/07/14 13:42:13;;;;;;;2.43;0.83;;;;;;;;;;5028853;28;20459;-71
2022/07/14 13:44:46;;;;;;;4.03;0.60;;;;;;;;;;5019502;28;20483;-71
2022/07/14 13:47:15;;;;;;;2.07;0.70;;;;;;;;;;5017431;28;20459;-70
2022/07/14 13:52:39;;;;;;;3.70;0.77;;;;;;;;;;5022429;28;20458;-70
2022/07/14 13:55:08;;;;;;;3.83;0.80;;;;;;;;;;5026102;28;20903;-70
2022/07/14 13:57:40;;;;;;;6.83;0.80;;;;;;;;;;5031221;28;20479;-70
2022/07/14 14:00:11;;;;;;;3.20;0.90;;;;;;;;;;5020073;28;20887;-72
2022/07/14 14:05:23;;;;;;;4.03;0.70;;;;;;;;;;5023170;28;20429;-72
2022/07/14 14:07:52;;;;;;;1.93;0.60;;;;;;;;;;5033500;28;20453;-73
2022/07/14 14:10:20;;;;;;;2.30;0.60;;;;;;;;;;5033810;28;20568;-71
2022/07/14 14:12:52;;;;;;;5.10;0.70;;;;;;;;;;5032372;28;20548;-71
2022/07/14 14:15:20;;;;;;;1.90;1.13;;;;;;;;;;5024036;28;20549;-71
2022/07/14 14:17:53;;;;;;;2.13;0.60;;;;;;;;;;5018742;28;20478;-69
2022/07/14 14:20:21;;;;;;;3.50;0.93;;;;;;;;;;5028434;28;20501;-71
2022/07/14 14:22:51;;;;;;;2.40;0.60;;;;;;;;;;5031452;28;21086;-71
2022/07/14 14:25:20;;;;;;;2.67;0.80;;;;;;;;;;5020531;28;20963;-69
2022/07/14 14:27:47;;;;;;;2.30;0.70;;;;;;;;;;5029014;28;20871;-70
2022/07/14 14:30:17;;;;;;;1.77;0.60;;;;;;;;;;5018861;28;20463;-70
2022/07/14 14:32:46;;;;;;;2.10;0.63;;;;;;;;;;5015015;28;20880;-72
2022/07/14 14:35:14;;;;;;;2.70;0.70;;;;;;;;;;5034311;28;20457;-70
2022/07/14 14:37:50;;;;;;;3.83;0.60;;;;;;;;;;5018582;28;20586;-70
2022/07/14 14:40:19;;;;;;;4.10;0.80;;;;;;;;;;5022446;28;20513;-71
2022/07/14 14:42:47;;;;;;;2.37;0.60;;;;;;;;;;5014525;28;20546;-70
2022/07/14 14:45:18;;;;;;;3.20;0.87;;;;;;;;;;5020008;28;20540;-70
2022/07/14 14:47:51;;;;;;;3.70;0.67;;;;;;;;;;5021028;28;20471;-70
2022/07/14 14:50:19;;;;;;;3.20;0.73;;;;;;;;;;5017196;28;21065;-70
2022/07/14 14:52:52;;;;;;;2.37;0.70;;;;;;;;;;5025050;28;20969;-70
2022/07/14 14:55:22;;;;;;;2.43;0.67;;;;;;;;;;5021925;28;20450;-69
2022/07/14 14:58:01;;;;;;;2.27;0.80;;;;;;;;;;5019994;28;20490;-70
2022/07/14 15:00:33;;;;;;;5.30;0.80;;;;;;;;;;5013951;28;20486;-70
2022/07/14 15:03:03;;;;;;;3.20;0.70;;;;;;;;;;5013909;28;20730;-69
2022/07/14 15:05:43;;;;;;;2.27;0.60;;;;;;;;;;5013113;28;20471;-70
2022/07/14 15:08:16;;;;;;;3.20;0.70;;;;;;;;;;5019401;28;20562;-70
2022/07/14 15:10:45;;;;;;;2.27;0.63;;;;;;;;;;5021155;28;20454;-69
2022/07/14 15:13:18;;;;;;;3.40;0.90;;;;;;;;;;5019208;28;20918;-69
2022/07/14 15:15:48;;;;;;;5.27;0.80;;;;;;;;;;5017965;28;20478;-69
2022/07/14 15:18:18;;;;;;;3.00;0.60;;;;;;;;;;5019646;28;20489;-69
2022/07/14 15:20:47;;;;;;;2.13;0.70;;;;;;;;;;5019024;28;20713;-70
2022/07/14 15:23:15;;;;;;;3.57;0.73;;;;;;;;;;5022978;28;20452;-69
2022/07/14 15:25:46;;;;;;;2.40;0.83;;;;;;;;;;5031452;28;20483;-69
2022/07/14 15:28:14;;;;;;;3.77;0.77;;;;;;;;;;5022130;28;20451;-69
2022/07/14 15:30:42;;;;;;;1.80;0.70;;;;;;;;;;5016916;28;20455;-69
2022/07/14 15:33:10;;;;;;;4.53;1.10;;;;;;;;;;5016570;28;20460;-69
2022/07/14 15:35:43;;;;;;;4.07;0.77;;;;;;;;;;5019459;28;20458;-70
2022/07/14 15:38:11;;;;;;;5.37;1.27;;;;;;;;;;5030127;28;20490;-70